Time;durP1;ratioP1;P1;durP2;ratioP2;P2;SDS_P1;SDS_P2;PMS_P1;PMS_P2;Temp;Humidity;BMP_temperature;BMP_pressure;BME280_temperature;BME280_humidity;BME280_pressure;Samples;Min_cycle;Max_cycle;Signal;HPM_P1;HPM_P2
2022/09/01 07:24:56;;;;;;;27.50;4.00;;;23.30;71.30;;;;;;5081117;28;20410;-67
2022/09/01 07:27:26;;;;;;;16.20;3.85;;;23.90;61.60;;;;;;5081167;28;20316;-65
2022/09/01 07:29:55;;;;;;;15.40;2.95;;;24.20;60.80;;;;;;5081205;28;20031;-66
2022/09/01 07:32:22;;;;;;;12.75;3.88;;;24.50;60.40;;;;;;5066426;28;20017;-65
2022/09/01 07:34:48;;;;;;;14.47;2.43;;;24.70;59.80;;;;;;5079885;28;20043;-64
2022/09/01 07:37:14;;;;;;;11.73;2.50;;;24.80;59.20;;;;;;5080511;28;20087;-65
2022/09/01 07:39:45;;;;;;;8.45;2.30;;;25.00;58.90;;;;;;5080156;28;20023;-65
2022/09/01 07:42:11;;;;;;;13.18;2.00;;;25.10;58.60;;;;;;5080209;28;20021;-65
2022/09/01 07:44:37;;;;;;;5.13;2.15;;;25.30;58.30;;;;;;5080258;28;20051;-66
2022/09/01 07:47:08;;;;;;;13.98;2.45;;;25.40;57.90;;;;;;5080169;28;20020;-66
2022/09/01 07:49:36;;;;;;;11.85;3.10;;;25.50;57.60;;;;;;5080326;28;20017;-65
2022/09/01 07:52:04;;;;;;;6.50;2.50;;;25.60;57.30;;;;;;5080663;28;20040;-65
2022/09/01 07:54:30;;;;;;;9.98;2.05;;;25.60;57.10;;;;;;5080286;28;20048;-65
2022/09/01 07:56:56;;;;;;;10.68;2.10;;;25.70;56.90;;;;;;5080583;28;20093;-66
2022/09/01 07:59:22;;;;;;;10.27;2.38;;;25.80;56.80;;;;;;5080315;28;20307;-65
2022/09/01 08:01:48;;;;;;;5.45;1.88;;;25.80;56.60;;;;;;5080235;28;20021;-65
2022/09/01 08:04:15;;;;;;;5.90;1.67;;;25.90;56.50;;;;;;5079991;28;20312;-65
2022/09/01 08:06:41;;;;;;;7.30;1.85;;;25.90;56.50;;;;;;5080130;28;20063;-65
2022/09/01 08:09:09;;;;;;;7.07;2.38;;;26.00;56.40;;;;;;5079941;28;20013;-64
2022/09/01 08:11:35;;;;;;;4.50;1.85;;;25.90;56.20;;;;;;5080292;28;20021;-65
2022/09/01 08:14:01;;;;;;;6.43;2.00;;;26.00;56.20;;;;;;5079975;28;20092;-65
2022/09/01 08:16:30;;;;;;;12.05;2.63;;;26.00;56.10;;;;;;5075310;28;20271;-65
2022/09/01 08:18:56;;;;;;;7.03;1.85;;;26.00;56.10;;;;;;5069604;28;20077;-65
2022/09/01 08:21:23;;;;;;;5.47;1.83;;;26.10;56.10;;;;;;5079806;28;20181;-64
2022/09/01 08:23:51;;;;;;;4.10;1.80;;;26.10;56.10;;;;;;5079150;28;20064;-65
2022/09/01 08:26:20;;;;;;;12.98;3.55;;;26.10;56.00;;;;;;5079434;28;20091;-64
2022/09/01 08:28:46;;;;;;;4.53;2.38;;;26.00;56.10;;;;;;5079292;28;20027;-64
2022/09/01 08:31:14;;;;;;;4.45;1.77;;;26.10;56.00;;;;;;5079566;28;20072;-64
2022/09/01 08:33:41;;;;;;;;;;;26.10;56.10;;;;;;5079354;28;20020;-65
2022/09/01 08:36:09;;;;;;;7.28;2.20;;;26.10;56.10;;;;;;5066843;28;20077;-65
2022/09/01 08:38:34;;;;;;;4.90;1.75;;;26.10;56.00;;;;;;5065893;28;20027;-64
2022/09/01 08:41:02;;;;;;;6.40;1.80;;;26.10;56.00;;;;;;5066268;28;20312;-65
2022/09/01 08:43:33;;;;;;;9.47;2.17;;;26.20;56.00;;;;;;5065566;28;20020;-64
2022/09/01 08:46:08;;;;;;;3.58;1.67;;;26.20;56.00;;;;;;5066125;28;20013;-64
2022/09/01 08:48:41;;;;;;;7.13;1.83;;;26.10;56.00;;;;;;5065710;28;20317;-65
2022/09/01 08:51:18;;;;;;;6.28;2.38;;;26.10;55.90;;;;;;5065718;28;20017;-66
2022/09/01 08:53:50;;;;;;;3.83;1.77;;;26.20;56.00;;;;;;5063804;28;20212;-64
2022/09/01 08:56:18;;;;;;;15.18;2.33;;;26.20;55.90;;;;;;5065324;28;20139;-64
2022/09/01 08:58:44;;;;;;;8.23;2.00;;;26.10;55.80;;;;;;5065804;28;20076;-64
2022/09/01 09:01:45;;;;;;;4.13;2.10;;;26.10;55.80;;;;;;5065818;28;20087;-64
2022/09/01 09:04:36;;;;;;;8.30;1.73;;;26.20;55.90;;;;;;5061020;28;20316;-65
2022/09/01 09:07:21;;;;;;;4.85;1.77;;;26.20;55.80;;;;;;5065619;28;20181;-64
2022/09/01 09:10:12;;;;;;;4.25;1.67;;;26.20;55.70;;;;;;5065714;28;20017;-65
2022/09/01 09:13:07;;;;;;;4.63;1.73;;;26.20;55.60;;;;;;5065324;28;20031;-64
2022/09/01 09:16:02;;;;;;;6.82;1.52;;;26.20;55.50;;;;;;5062577;28;20048;-65
2022/09/01 09:18:50;;;;;;;3.05;1.65;;;26.30;55.50;;;;;;5055742;28;20025;-64
2022/09/01 09:21:21;;;;;;;6.43;1.73;;;26.30;55.50;;;;;;5065511;28;20025;-66
2022/09/01 09:23:53;;;;;;;8.50;1.50;;;26.30;55.50;;;;;;5065181;28;20218;-65
2022/09/01 09:26:19;;;;;;;5.13;2.20;;;26.30;55.40;;;;;;5065338;28;20080;-65
2022/09/01 09:28:48;;;;;;;5.25;1.90;;;26.30;55.40;;;;;;5065563;28;20084;-65
2022/09/01 09:31:26;;;;;;;4.13;1.70;;;26.30;55.50;;;;;;5065540;28;20051;-65
2022/09/01 09:33:52;;;;;;;;;;;26.30;55.40;;;;;;5065604;28;20021;-64
2022/09/01 09:36:21;;;;;;;6.40;1.65;;;26.30;55.50;;;;;;5065172;28;19907;-65
2022/09/01 09:39:02;;;;;;;4.70;1.60;;;26.30;55.40;;;;;;5065138;28;20052;-65
2022/09/01 09:41:30;;;;;;;2.97;1.73;;;26.30;55.40;;;;;;5065388;28;20039;-64
2022/09/01 09:44:21;;;;;;;3.78;1.38;;;26.40;55.40;;;;;;5065264;28;20017;-64
2022/09/01 09:46:48;;;;;;;5.28;1.90;;;26.30;55.30;;;;;;5063988;28;20084;-65
2022/09/01 09:49:30;;;;;;;4.18;1.25;;;26.30;55.30;;;;;;5064943;28;20043;-64
2022/09/01 09:52:09;;;;;;;2.90;1.70;;;26.40;55.40;;;;;;5065154;28;20086;-65
2022/09/01 09:54:37;;;;;;;2.35;1.25;;;26.40;55.30;;;;;;5064839;28;20032;-64
2022/09/01 09:57:02;;;;;;;6.22;2.10;;;26.40;55.30;;;;;;5064730;28;20017;-65
2022/09/01 09:59:38;;;;;;;6.28;2.15;;;26.40;55.30;;;;;;5064962;28;20092;-64
2022/09/01 10:02:25;;;;;;;4.18;1.52;;;26.40;55.20;;;;;;5064708;28;20027;-64
2022/09/01 10:04:52;;;;;;;10.20;1.77;;;26.40;55.20;;;;;;5064561;28;20029;-64
2022/09/01 10:07:26;;;;;;;2.55;1.50;;;26.40;55.20;;;;;;5064529;28;20529;-64
2022/09/01 10:09:54;;;;;;;3.08;1.40;;;26.40;55.80;;;;;;5064513;28;20013;-65
2022/09/01 10:12:22;;;;;;;3.28;1.58;;;26.40;55.10;;;;;;5064438;28;20055;-65
2022/09/01 10:14:53;;;;;;;;;;;26.50;55.10;;;;;;5064829;28;20023;-64
2022/09/01 10:17:27;;;;;;;3.38;1.40;;;26.50;55.10;;;;;;5064382;28;20018;-65
2022/09/01 10:20:04;;;;;;;3.40;1.52;;;26.50;55.00;;;;;;5064358;28;20084;-64
2022/09/01 10:22:32;;;;;;;2.90;1.33;;;26.50;54.90;;;;;;5064166;28;20020;-64
2022/09/01 10:25:02;;;;;;;7.55;1.95;;;26.60;55.00;;;;;;5064260;28;20028;-64
2022/09/01 10:27:35;;;;;;;7.68;1.65;;;26.50;54.90;;;;;;5064474;28;20013;-65
2022/09/01 10:30:05;;;;;;;4.82;2.30;;;26.50;54.90;;;;;;5064158;28;20204;-65
2022/09/01 10:32:59;;;;;;;3.50;1.65;;;26.50;54.90;;;;;;5064099;28;20036;-65
2022/09/01 10:35:31;;;;;;;2.25;1.20;;;26.50;54.90;;;;;;5063914;28;20017;-65
2022/09/01 10:37:59;;;;;;;1.73;1.27;;;26.60;54.90;;;;;;5064011;28;20131;-65
2022/09/01 10:40:27;;;;;;;2.45;1.60;;;26.60;54.80;;;;;;5063957;28;20334;-65
2022/09/01 10:43:22;;;;;;;3.08;1.13;;;26.60;54.80;;;;;;5063831;28;20027;-64
2022/09/01 10:45:48;;;;;;;2.33;1.42;;;26.60;54.80;;;;;;5063770;28;20026;-64
2022/09/01 10:48:19;;;;;;;5.22;1.48;;;26.60;54.70;;;;;;5063834;28;20205;-63
2022/09/01 10:51:11;;;;;;;7.25;1.83;;;26.60;54.70;;;;;;5063775;28;20101;-66
2022/09/01 10:53:59;;;;;;;5.25;1.30;;;26.60;54.90;;;;;;5053534;28;20040;-65
2022/09/01 10:56:42;;;;;;;3.00;1.50;;;26.50;54.90;;;;;;5063458;28;20059;-65
2022/09/01 10:59:16;;;;;;;4.75;1.23;;;26.60;54.70;;;;;;5063458;28;20029;-64
2022/09/01 11:01:42;;;;;;;2.47;1.40;;;26.60;54.70;;;;;;5063970;28;20025;-64
2022/09/01 11:04:28;;;;;;;2.72;1.48;;;26.70;54.70;;;;;;5063544;28;20016;-64
2022/09/01 11:07:00;;;;;;;2.28;1.23;;;26.70;54.70;;;;;;5063316;28;20266;-65
2022/09/01 11:09:41;;;;;;;2.00;1.10;;;26.60;54.60;;;;;;5063611;28;20084;-65
2022/09/01 11:12:31;;;;;;;4.95;1.45;;;26.70;54.70;;;;;;5063571;28;20203;-65
2022/09/01 11:15:00;;;;;;;5.20;1.50;;;26.70;54.70;;;;;;5063511;28;20312;-65
2022/09/01 11:17:49;;;;;;;3.10;1.25;;;26.70;54.70;;;;;;5063428;28;20028;-65
2022/09/01 11:20:21;;;;;;;5.25;1.70;;;26.70;54.70;;;;;;5060036;28;20067;-65
2022/09/01 11:22:55;;;;;;;4.88;1.38;;;26.70;54.70;;;;;;5063120;28;20017;-65
2022/09/01 11:25:39;;;;;;;2.10;1.25;;;26.70;54.60;;;;;;5063414;28;20021;-65
2022/09/01 11:28:07;;;;;;;1.50;1.40;;;26.70;55.30;;;;;;5063435;28;20254;-65
2022/09/01 11:30:51;;;;;;;4.05;1.45;;;26.70;54.70;;;;;;5063350;28;20017;-65
2022/09/01 11:33:52;;;;;;;2.38;1.40;;;26.70;54.70;;;;;;5063367;28;20320;-65
2022/09/01 11:36:18;;;;;;;2.08;1.35;;;26.70;54.80;;;;;;5063262;28;20021;-64
2022/09/01 11:38:48;;;;;;;3.20;1.40;;;26.70;54.80;;;;;;5063579;28;20021;-65
2022/09/01 11:41:22;;;;;;;3.10;1.75;;;26.70;54.80;;;;;;5063237;28;20013;-65
2022/09/01 11:43:55;;;;;;;4.30;1.63;;;26.70;54.80;;;;;;5063133;28;20024;-65
2022/09/01 11:46:33;;;;;;;3.92;1.92;;;26.70;54.80;;;;;;5063230;28;20308;-64
2022/09/01 11:49:05;;;;;;;3.63;1.30;;;26.70;54.80;;;;;;5063167;28;20086;-65
2022/09/01 11:51:45;;;;;;;3.70;1.40;;;26.80;54.90;;;;;;5061953;28;20036;-65
2022/09/01 11:54:11;;;;;;;2.65;1.50;;;26.80;54.80;;;;;;5063174;28;20273;-65
2022/09/01 11:56:37;;;;;;;2.78;1.50;;;26.80;54.80;;;;;;5063079;28;20021;-65
2022/09/01 11:59:03;;;;;;;2.65;1.30;;;26.80;54.70;;;;;;5063087;28;20359;-65
2022/09/01 12:01:29;;;;;;;2.20;1.10;;;26.80;54.70;;;;;;5063051;28;20044;-65
2022/09/01 12:03:54;;;;;;;4.03;1.20;;;26.80;54.70;;;;;;5062931;28;20025;-64
2022/09/01 12:06:25;;;;;;;3.08;1.48;;;26.80;54.70;;;;;;5062975;28;20080;-65
2022/09/01 12:08:57;;;;;;;4.13;1.52;;;26.80;54.70;;;;;;5063025;28;20293;-65
2022/09/01 12:11:29;;;;;;;2.30;1.20;;;26.80;54.90;;;;;;5066146;28;20019;-64
2022/09/01 12:14:01;;;;;;;4.85;1.70;;;26.80;54.80;;;;;;5066770;28;20186;-65
2022/09/01 12:16:29;;;;;;;2.63;1.73;;;26.80;54.90;;;;;;5066696;28;20020;-64
2022/09/01 12:18:57;;;;;;;2.25;1.17;;;26.80;54.90;;;;;;5066674;28;20021;-65
2022/09/01 12:21:41;;;;;;;4.03;1.58;;;26.80;55.00;;;;;;5066647;28;20025;-65
2022/09/01 12:24:22;;;;;;;7.78;1.33;;;26.80;55.00;;;;;;5065138;28;20241;-64
2022/09/01 12:26:53;;;;;;;3.22;1.30;;;26.80;55.10;;;;;;5066457;28;20071;-65
2022/09/01 12:29:19;;;;;;;2.17;1.17;;;26.80;55.10;;;;;;5066454;28;20023;-64
2022/09/01 12:31:49;;;;;;;2.95;1.42;;;26.80;55.10;;;;;;5066383;28;20017;-64
2022/09/01 12:34:23;;;;;;;2.80;1.40;;;26.80;54.90;;;;;;5066343;28;20032;-65
2022/09/01 12:37:13;;;;;;;1.42;1.33;;;26.80;54.80;;;;;;5066348;28;20324;-64
2022/09/01 12:39:41;;;;;;;2.10;1.20;;;26.90;54.90;;;;;;5066245;28;20070;-65
2022/09/01 12:42:09;;;;;;;;;;;26.90;54.80;;;;;;5066664;28;20021;-64
2022/09/01 12:44:37;;;;;;;2.13;1.70;;;26.90;54.70;;;;;;5066106;28;20214;-65
2022/09/01 12:47:05;;;;;;;2.88;1.35;;;26.90;54.70;;;;;;5066117;28;20300;-65
2022/09/01 12:49:36;;;;;;;;;;;27.00;54.60;;;;;;5066528;28;20265;-65
2022/09/01 12:52:09;;;;;;;1.38;1.27;;;27.00;54.50;;;;;;5065927;28;19900;-65
2022/09/01 12:54:36;;;;;;;4.45;1.60;;;27.10;54.30;;;;;;5066026;28;20032;-64
2022/09/01 12:57:02;;;;;;;2.15;1.10;;;27.20;54.30;;;;;;5065907;28;20021;-64
2022/09/01 12:59:27;;;;;;;1.70;1.52;;;27.20;54.30;;;;;;5065897;28;20080;-64
2022/09/01 13:01:53;;;;;;;2.28;1.52;;;27.20;54.20;;;;;;5065894;28;20304;-64
2022/09/01 13:04:25;;;;;;;1.95;1.40;;;27.30;54.10;;;;;;5065753;28;20251;-65
2022/09/01 13:06:52;;;;;;;1.92;1.40;;;27.40;53.60;;;;;;5065736;28;20017;-65
2022/09/01 13:09:18;;;;;;;1.52;1.33;;;27.80;53.10;;;;;;5065722;28;20047;-64
2022/09/01 13:11:48;;;;;;;3.13;1.42;;;28.00;52.20;;;;;;5065673;28;20021;-64
2022/09/01 13:14:14;;;;;;;2.65;1.50;;;28.20;51.60;;;;;;5065562;28;20024;-64
2022/09/01 13:16:41;;;;;;;2.85;1.02;;;28.40;51.30;;;;;;5065627;28;20021;-64
2022/09/01 13:19:07;;;;;;;2.88;1.38;;;28.60;51.00;;;;;;5065526;28;20025;-64
2022/09/01 13:21:34;;;;;;;2.08;1.30;;;28.60;50.70;;;;;;5065365;28;20051;-64
2022/09/01 13:24:03;;;;;;;3.15;1.30;;;28.70;50.50;;;;;;5065195;28;20043;-65
2022/09/01 13:26:30;;;;;;;1.30;1.10;;;29.00;50.20;;;;;;5065412;28;20025;-65
2022/09/01 13:28:56;;;;;;;2.80;1.33;;;29.10;49.70;;;;;;5065367;28;20040;-64
2022/09/01 13:31:22;;;;;;;1.50;1.10;;;29.20;49.60;;;;;;5065355;28;20013;-64
2022/09/01 13:33:48;;;;;;;1.92;1.17;;;29.50;49.10;;;;;;5065261;28;20079;-64
2022/09/01 13:36:14;;;;;;;2.65;1.42;;;29.70;48.70;;;;;;5065204;28;20020;-65
2022/09/01 13:38:40;;;;;;;4.63;1.38;;;29.40;48.90;;;;;;5065145;28;20025;-64
2022/09/01 13:41:06;;;;;;;2.78;1.20;;;29.00;50.00;;;;;;5065117;28;20021;-63
2022/09/01 13:43:34;;;;;;;2.92;1.25;;;28.60;50.90;;;;;;5064990;28;20048;-64
2022/09/01 13:45:59;;;;;;;3.72;1.23;;;28.30;51.60;;;;;;5065071;28;20085;-65
2022/09/01 13:48:27;;;;;;;1.63;1.20;;;28.00;52.20;;;;;;5065002;28;20025;-65
2022/09/01 13:50:53;;;;;;;1.65;1.23;;;28.10;52.50;;;;;;5064957;28;20016;-65
2022/09/01 13:53:20;;;;;;;1.52;1.30;;;28.40;51.60;;;;;;5064821;28;20021;-65
2022/09/01 13:55:46;;;;;;;3.00;1.38;;;28.80;50.90;;;;;;5064806;28;20040;-65
2022/09/01 13:58:13;;;;;;;3.08;0.90;;;29.00;50.30;;;;;;5064772;28;20032;-65
2022/09/01 14:00:45;;;;;;;3.95;1.27;;;29.20;49.80;;;;;;5064743;28;20300;-64
2022/09/01 14:03:16;;;;;;;1.35;1.20;;;29.10;49.90;;;;;;5064690;28;20342;-65
2022/09/01 14:05:44;;;;;;;2.80;1.33;;;29.10;50.10;;;;;;5064659;28;20044;-65
2022/09/01 14:08:12;;;;;;;2.88;1.45;;;29.20;50.00;;;;;;5064588;28;20028;-65
2022/09/01 14:10:44;;;;;;;2.33;1.42;;;29.30;49.60;;;;;;5064494;28;20088;-64
2022/09/01 14:13:11;;;;;;;1.77;1.10;;;29.40;49.50;;;;;;5064427;28;20021;-65
2022/09/01 14:15:37;;;;;;;1.10;1.00;;;29.20;49.70;;;;;;5064468;28;20210;-64
2022/09/01 14:18:04;;;;;;;2.00;1.25;;;29.20;50.00;;;;;;5064374;28;20216;-65
2022/09/01 14:20:34;;;;;;;3.67;1.58;;;29.00;50.20;;;;;;5064347;28;20089;-65
2022/09/01 14:23:03;;;;;;;2.60;1.45;;;28.80;50.60;;;;;;5064172;28;20036;-65
2022/09/01 14:25:30;;;;;;;0.85;0.82;;;28.70;51.00;;;;;;5064279;28;20032;-65
2022/09/01 14:27:56;;;;;;;1.33;1.10;;;28.60;51.30;;;;;;5064230;28;20013;-67
2022/09/01 14:30:25;;;;;;;2.42;1.00;;;28.50;51.60;;;;;;5064120;28;20029;-65
2022/09/01 14:32:51;;;;;;;1.75;1.23;;;28.30;51.80;;;;;;5063531;28;20212;-64
2022/09/01 14:35:19;;;;;;;1.45;1.33;;;28.20;52.10;;;;;;5064102;28;20073;-65
2022/09/01 14:37:45;;;;;;;;;;;28.10;52.50;;;;;;5064496;28;20017;-65
2022/09/01 14:40:13;;;;;;;2.00;1.00;;;28.00;52.60;;;;;;5064006;28;19900;-65
2022/09/01 14:42:42;;;;;;;1.95;1.65;;;28.00;52.80;;;;;;5063969;28;20357;-65
2022/09/01 14:45:14;;;;;;;1.88;1.30;;;27.90;52.80;;;;;;5063886;28;20012;-64
2022/09/01 14:47:40;;;;;;;1.63;1.30;;;27.90;53.10;;;;;;5063876;28;20016;-65
2022/09/01 14:50:06;;;;;;;2.55;0.95;;;27.90;53.20;;;;;;5063823;28;20266;-65
2022/09/01 14:52:32;;;;;;;1.38;1.20;;;27.80;53.20;;;;;;5063807;28;20020;-64
2022/09/01 14:54:58;;;;;;;1.80;1.10;;;27.80;53.90;;;;;;5063686;28;20021;-64
2022/09/01 14:57:24;;;;;;;4.65;1.27;;;27.80;53.30;;;;;;5063750;28;20323;-64
2022/09/01 14:59:49;;;;;;;2.28;1.30;;;27.70;53.40;;;;;;5063673;28;20371;-64
2022/09/01 15:02:15;;;;;;;2.80;1.20;;;27.70;53.70;;;;;;5063655;28;20021;-65
2022/09/01 15:04:41;;;;;;;2.13;1.27;;;27.60;53.70;;;;;;5063598;28;20025;-64
2022/09/01 15:07:07;;;;;;;1.20;1.10;;;27.60;53.80;;;;;;5063619;28;20335;-65
2022/09/01 15:09:34;;;;;;;1.50;1.13;;;27.60;53.80;;;;;;5063572;28;20032;-64
2022/09/01 15:12:00;;;;;;;1.42;1.05;;;27.60;53.90;;;;;;5063531;28;20043;-64
2022/09/01 15:14:26;;;;;;;1.73;1.30;;;27.50;54.00;;;;;;5063441;28;20216;-64
2022/09/01 15:16:52;;;;;;;1.52;1.08;;;27.60;54.10;;;;;;5063491;28;20009;-64
2022/09/01 15:19:18;;;;;;;2.42;1.27;;;27.50;54.00;;;;;;5063437;28;20024;-65
2022/09/01 15:21:45;;;;;;;2.45;1.00;;;27.60;54.00;;;;;;5063401;28;20023;-64
2022/09/01 15:24:12;;;;;;;1.35;1.20;;;27.60;53.90;;;;;;5063243;28;20232;-64
2022/09/01 15:26:39;;;;;;;2.13;1.50;;;27.60;53.90;;;;;;5063367;28;20025;-65
2022/09/01 15:29:12;;;;;;;2.22;1.10;;;27.60;53.90;;;;;;5063390;28;20076;-65
2022/09/01 15:31:38;;;;;;;3.72;1.60;;;27.60;53.80;;;;;;5063392;28;20025;-65
2022/09/01 15:34:04;;;;;;;1.73;1.35;;;27.70;53.70;;;;;;5063234;28;20027;-65
2022/09/01 15:36:35;;;;;;;2.63;0.90;;;27.70;53.60;;;;;;5063286;28;20021;-65
2022/09/01 15:39:02;;;;;;;1.02;1.02;;;27.80;53.50;;;;;;5063244;28;20023;-65
2022/09/01 15:41:30;;;;;;;3.08;1.20;;;27.80;53.50;;;;;;5063232;28;20088;-64
2022/09/01 15:43:57;;;;;;;2.22;1.20;;;27.70;53.50;;;;;;5063220;28;20055;-65
2022/09/01 15:46:30;;;;;;;2.15;1.38;;;27.70;53.70;;;;;;5066531;28;20025;-64
2022/09/01 15:49:00;;;;;;;1.20;1.10;;;27.60;53.80;;;;;;5067244;28;20017;-64
2022/09/01 15:51:29;;;;;;;3.25;1.17;;;27.60;54.00;;;;;;5067180;28;20098;-64
2022/09/01 15:53:59;;;;;;;2.22;1.25;;;27.60;54.10;;;;;;5065948;28;20029;-65
2022/09/01 15:56:25;;;;;;;2.65;0.98;;;27.50;54.00;;;;;;5067089;28;20020;-65
2022/09/01 15:58:51;;;;;;;1.45;1.10;;;27.50;54.20;;;;;;5065895;28;20087;-65
2022/09/01 16:01:20;;;;;;;1.35;1.17;;;27.40;54.30;;;;;;5067014;28;20209;-65
2022/09/01 16:03:47;;;;;;;1.23;1.10;;;27.30;54.40;;;;;;5066982;28;20358;-65
2022/09/01 16:06:13;;;;;;;3.70;1.20;;;27.40;54.60;;;;;;5066911;28;20300;-64
2022/09/01 16:08:40;;;;;;;1.20;0.95;;;27.30;54.60;;;;;;5066881;28;20051;-65
2022/09/01 16:11:08;;;;;;;2.10;1.17;;;27.30;54.60;;;;;;5066847;28;20024;-65
2022/09/01 16:13:34;;;;;;;;;;;27.30;54.60;;;;;;5067118;28;20027;-64
2022/09/01 16:16:37;;;;;;;1.45;1.20;;;27.30;54.60;;;;;;5066744;28;19901;-65
2022/09/01 16:19:31;;;;;;;1.33;1.10;;;27.40;54.60;;;;;;5066704;28;20082;-64
2022/09/01 16:22:18;;;;;;;1.50;1.38;;;27.30;54.70;;;;;;5066637;28;20328;-65
2022/09/01 16:24:48;;;;;;;1.70;1.50;;;27.30;54.70;;;;;;5066447;28;20123;-65
2022/09/01 16:27:17;;;;;;;1.98;1.40;;;27.20;54.80;;;;;;5066523;28;20354;-65
2022/09/01 16:29:55;;;;;;;2.20;1.25;;;27.20;55.50;;;;;;5066474;28;20021;-64
2022/09/01 16:32:22;;;;;;;1.40;0.95;;;27.20;55.00;;;;;;5066464;28;20040;-65
2022/09/01 16:34:50;;;;;;;1.45;1.10;;;27.20;55.00;;;;;;5066293;28;20074;-65
2022/09/01 16:38:04;;;;;;;1.13;1.02;;;27.10;55.00;;;;;;5066333;28;20024;-65
2022/09/01 16:41:03;;;;;;;1.38;1.00;;;27.10;55.10;;;;;;5064987;28;20093;-65
2022/09/01 16:43:59;;;;;;;1.23;1.08;;;27.10;55.20;;;;;;5066544;28;20207;-65
2022/09/01 16:46:44;;;;;;;2.13;1.10;;;27.10;55.30;;;;;;5066242;28;20027;-65
2022/09/01 16:49:42;;;;;;;2.95;1.45;;;27.10;55.40;;;;;;5066131;28;20203;-65
2022/09/01 16:52:30;;;;;;;1.92;1.25;;;27.00;55.40;;;;;;5066123;28;20091;-65
2022/09/01 16:55:11;;;;;;;;;;;27.00;55.40;;;;;;5066411;28;20017;-64
2022/09/01 16:58:02;;;;;;;1.80;1.10;;;27.00;55.50;;;;;;5065740;28;19901;-65
2022/09/01 17:01:00;;;;;;;3.17;1.50;;;27.00;55.50;;;;;;5065927;28;20013;-64
2022/09/01 17:03:53;;;;;;;1.52;1.13;;;27.00;55.60;;;;;;5065705;28;20247;-65
2022/09/01 17:06:24;;;;;;;0.98;0.90;;;27.00;55.70;;;;;;5065816;28;20021;-65
2022/09/01 17:08:57;;;;;;;2.58;1.25;;;27.00;55.70;;;;;;5065757;28;20025;-65
2022/09/01 17:11:45;;;;;;;1.65;1.33;;;26.90;55.60;;;;;;5065775;28;20020;-65
2022/09/01 17:14:20;;;;;;;1.10;0.90;;;27.00;55.80;;;;;;5065610;28;20029;-65
2022/09/01 17:16:53;;;;;;;2.30;1.30;;;26.90;55.80;;;;;;5065908;28;20017;-65
2022/09/01 17:19:20;;;;;;;2.65;1.10;;;26.90;55.80;;;;;;5065577;28;20017;-65
2022/09/01 17:22:08;;;;;;;1.30;1.20;;;26.90;55.80;;;;;;5065534;28;20020;-65
2022/09/01 17:24:43;;;;;;;2.50;1.20;;;26.80;55.90;;;;;;5061279;28;20071;-65
2022/09/01 17:27:20;;;;;;;2.00;1.30;;;26.80;55.80;;;;;;5065383;28;20025;-65
2022/09/01 17:29:52;;;;;;;1.35;1.10;;;26.80;55.90;;;;;;5065388;28;20021;-65
2022/09/01 17:32:38;;;;;;;1.50;1.20;;;26.80;55.90;;;;;;5065317;28;20024;-64
2022/09/01 17:35:13;;;;;;;1.25;1.13;;;26.80;56.00;;;;;;5065158;28;20017;-65
2022/09/01 17:38:38;;;;;;;2.92;1.25;;;26.80;56.00;;;;;;5065218;28;20013;-65
2022/09/01 17:41:17;;;;;;;1.70;1.00;;;26.80;56.00;;;;;;5015268;28;20029;-66
2022/09/01 17:43:58;;;;;;;1.50;1.20;;;26.80;56.10;;;;;;5065097;28;20036;-65
2022/09/01 17:46:41;;;;;;;1.42;1.33;;;26.70;55.90;;;;;;5065046;28;20024;-64
2022/09/01 17:49:30;;;;;;;1.27;1.10;;;26.70;56.10;;;;;;5063961;28;20051;-65
2022/09/01 17:52:23;;;;;;;2.00;1.20;;;26.70;56.10;;;;;;5064913;28;20320;-64
2022/09/01 17:55:01;;;;;;;1.40;1.13;;;26.70;56.00;;;;;;5064796;28;20052;-65
2022/09/01 17:57:51;;;;;;;1.35;1.13;;;26.80;56.10;;;;;;5064857;28;20012;-64
2022/09/01 18:00:23;;;;;;;1.20;1.10;;;26.70;55.90;;;;;;5064820;28;20017;-64
2022/09/01 18:03:17;;;;;;;1.27;1.17;;;26.70;55.70;;;;;;5064713;28;20163;-64
2022/09/01 18:05:52;;;;;;;1.48;1.23;;;26.70;55.80;;;;;;5061574;28;20029;-65
2022/09/01 18:08:29;;;;;;;1.10;1.00;;;26.70;55.90;;;;;;5063789;28;20013;-65
2022/09/01 18:10:57;;;;;;;;;;;26.70;56.00;;;;;;5064999;28;20024;-65
2022/09/01 18:14:02;;;;;;;0.80;0.80;;;26.60;55.80;;;;;;5064454;28;19927;-65
2022/09/01 18:16:33;;;;;;;2.63;1.17;;;26.70;56.00;;;;;;5064500;28;20021;-64
2022/09/01 18:19:07;;;;;;;1.23;1.00;;;26.60;56.00;;;;;;5064442;28;20017;-64
2022/09/01 18:21:41;;;;;;;1.15;1.05;;;26.60;55.90;;;;;;5064380;28;20035;-65
2022/09/01 18:24:14;;;;;;;1.35;1.25;;;26.60;55.90;;;;;;5064061;28;20108;-65
2022/09/01 18:26:45;;;;;;;1.40;1.20;;;26.60;56.00;;;;;;5064254;28;20082;-65
2022/09/01 18:29:10;;;;;;;2.42;1.40;;;26.60;55.90;;;;;;5064230;28;20216;-65
2022/09/01 18:31:57;;;;;;;2.53;1.02;;;26.60;56.20;;;;;;5064184;28;20027;-65
2022/09/01 18:34:56;;;;;;;1.53;1.07;;;26.60;56.10;;;;;;5064149;28;20180;-64
2022/09/01 18:37:46;;;;;;;1.25;1.15;;;26.50;56.10;;;;;;5061044;28;20032;-64
2022/09/01 18:40:24;;;;;;;3.85;1.08;;;26.50;56.20;;;;;;5064050;28;20219;-64
2022/09/01 18:43:09;;;;;;;1.80;1.08;;;26.50;56.10;;;;;;5063995;28;20204;-65
2022/09/01 18:45:34;;;;;;;1.73;1.25;;;26.50;56.20;;;;;;5063979;28;20013;-65
2022/09/01 18:48:32;;;;;;;1.92;1.02;;;26.50;56.20;;;;;;5063902;28;20035;-65
2022/09/01 18:51:20;;;;;;;1.00;1.00;;;26.50;56.20;;;;;;5063870;28;20008;-64
2022/09/01 18:53:59;;;;;;;1.23;0.93;;;26.50;56.20;;;;;;5063758;28;20025;-65
2022/09/01 18:56:39;;;;;;;2.08;1.67;;;26.50;56.10;;;;;;5063784;28;20350;-65
2022/09/01 18:59:30;;;;;;;2.38;1.02;;;26.50;56.20;;;;;;5063766;28;20072;-65
2022/09/01 19:02:11;;;;;;;1.90;1.17;;;26.40;56.30;;;;;;5063695;28;20016;-65
2022/09/01 19:04:44;;;;;;;1.70;1.00;;;26.50;56.20;;;;;;5064006;28;20036;-64
2022/09/01 19:07:47;;;;;;;1.27;1.17;;;26.50;56.30;;;;;;5063649;28;20017;-65
2022/09/01 19:10:21;;;;;;;1.92;1.67;;;26.50;56.40;;;;;;5063579;28;20074;-65
2022/09/01 19:12:46;;;;;;;2.50;0.93;;;26.40;56.80;;;;;;5063538;28;20067;-65
2022/09/01 19:15:28;;;;;;;2.33;1.00;;;26.40;56.20;;;;;;5063531;28;20073;-65
2022/09/01 19:18:19;;;;;;;2.45;1.20;;;26.40;56.30;;;;;;5063509;28;20200;-65
2022/09/01 19:20:51;;;;;;;1.23;1.10;;;26.40;56.40;;;;;;5063394;28;20024;-65
2022/09/01 19:23:34;;;;;;;1.45;1.10;;;26.40;56.90;;;;;;5062939;28;20076;-65
2022/09/01 19:26:05;;;;;;;1.70;1.08;;;26.40;56.50;;;;;;5063429;28;20025;-65
2022/09/01 19:28:42;;;;;;;1.20;1.08;;;26.40;56.40;;;;;;5063440;28;20024;-65
2022/09/01 19:31:29;;;;;;;0.80;0.80;;;26.40;56.50;;;;;;5062272;28;20025;-64
2022/09/01 19:33:59;;;;;;;1.47;1.33;;;26.40;56.50;;;;;;5063303;28;20052;-66
2022/09/01 19:36:39;;;;;;;1.67;1.10;;;26.40;57.10;;;;;;5063308;28;20250;-65
2022/09/01 19:39:15;;;;;;;1.55;1.02;;;26.40;56.50;;;;;;5063317;28;20335;-65
2022/09/01 19:41:50;;;;;;;1.17;0.90;;;26.40;56.60;;;;;;5063276;28;20044;-65
2022/09/01 19:44:15;;;;;;;1.75;1.23;;;26.40;56.60;;;;;;5063283;28;20324;-65
2022/09/01 19:46:49;;;;;;;1.35;1.25;;;26.30;56.40;;;;;;5063216;28;20029;-65
2022/09/01 19:49:22;;;;;;;1.83;1.05;;;26.40;56.50;;;;;;5063259;28;20025;-65
2022/09/01 19:52:12;;;;;;;1.65;1.25;;;26.30;56.50;;;;;;5063178;28;20369;-65
2022/09/01 19:55:06;;;;;;;1.45;0.95;;;26.30;56.50;;;;;;5059020;28;20036;-65
2022/09/01 19:57:53;;;;;;;1.30;1.17;;;26.40;56.60;;;;;;5063129;28;20328;-65
2022/09/01 20:00:32;;;;;;;1.48;1.20;;;26.30;56.60;;;;;;5063088;28;20251;-65
2022/09/01 20:03:00;;;;;;;2.00;0.73;;;26.30;56.60;;;;;;5063100;28;20216;-65
2022/09/01 20:05:49;;;;;;;1.20;1.05;;;26.30;56.50;;;;;;5063307;28;20021;-65
2022/09/01 20:08:41;;;;;;;0.82;0.82;;;26.30;56.60;;;;;;5063056;28;20016;-65
2022/09/01 20:11:12;;;;;;;1.50;1.20;;;26.30;56.60;;;;;;5063323;28;20024;-65
2022/09/01 20:14:05;;;;;;;1.45;1.00;;;26.30;56.60;;;;;;5062874;28;20025;-65
2022/09/01 20:16:40;;;;;;;1.10;1.00;;;26.30;56.60;;;;;;5062959;28;20021;-64
2022/09/01 20:19:21;;;;;;;0.77;0.77;;;26.30;56.60;;;;;;5061781;28;20366;-65
2022/09/01 20:21:47;;;;;;;1.15;1.08;;;26.30;56.60;;;;;;5062897;28;20051;-65
2022/09/01 20:24:36;;;;;;;1.27;1.00;;;26.30;56.70;;;;;;5062715;28;20265;-65
2022/09/01 20:27:13;;;;;;;1.05;0.90;;;26.30;56.80;;;;;;5062855;28;20334;-65
2022/09/01 20:29:58;;;;;;;1.10;1.00;;;26.30;56.70;;;;;;5062875;28;20028;-66
2022/09/01 20:32:50;;;;;;;1.75;1.27;;;26.30;56.80;;;;;;5065882;28;20013;-65
2022/09/01 20:35:23;;;;;;;1.60;1.15;;;26.30;56.80;;;;;;5066433;28;20025;-66
2022/09/01 20:37:56;;;;;;;1.58;1.00;;;26.30;56.80;;;;;;5066373;28;20024;-65
2022/09/01 20:40:26;;;;;;;1.25;0.80;;;26.30;56.80;;;;;;5066333;28;20311;-64
2022/09/01 20:43:18;;;;;;;1.20;1.00;;;26.30;56.80;;;;;;5066271;28;20021;-65
2022/09/01 20:45:44;;;;;;;3.20;1.30;;;26.20;56.70;;;;;;5066288;28;20059;-64
2022/09/01 20:48:18;;;;;;;2.30;1.27;;;26.30;56.80;;;;;;5066446;28;20072;-65